sensor_id;sensor_type;location;lat;lon;timestamp;P1;durP1;ratioP1;P2;durP2;ratioP2
1076;SDS011;64114;48.726;9.370;2022-12-07T00:01:17;9.90;;;6.90;;
1076;SDS011;64114;48.726;9.370;2022-12-07T00:03:47;9.60;;;6.50;;
1076;SDS011;64114;48.726;9.370;2022-12-07T00:06:17;8.27;;;7.07;;
1076;SDS011;64114;48.726;9.370;2022-12-07T00:08:46;8.90;;;6.37;;
1076;SDS011;64114;48.726;9.370;2022-12-07T00:11:16;7.90;;;5.83;;
1076;SDS011;64114;48.726;9.370;2022-12-07T00:13:46;10.13;;;6.77;;
1076;SDS011;64114;48.726;9.370;2022-12-07T00:16:15;8.93;;;5.87;;
1076;SDS011;64114;48.726;9.370;2022-12-07T00:18:45;11.90;;;7.27;;
1076;SDS011;64114;48.726;9.370;2022-12-07T00:21:15;9.20;;;5.60;;
1076;SDS011;64114;48.726;9.370;2022-12-07T00:23:45;10.33;;;6.97;;
1076;SDS011;64114;48.726;9.370;2022-12-07T00:26:15;9.30;;;6.30;;
1076;SDS011;64114;48.726;9.370;2022-12-07T00:28:47;7.77;;;6.13;;
1076;SDS011;64114;48.726;9.370;2022-12-07T00:31:17;9.30;;;6.40;;
1076;SDS011;64114;48.726;9.370;2022-12-07T00:33:49;7.10;;;5.90;;
1076;SDS011;64114;48.726;9.370;2022-12-07T00:36:18;8.30;;;6.50;;
1076;SDS011;64114;48.726;9.370;2022-12-07T00:38:52;7.53;;;6.30;;
1076;SDS011;64114;48.726;9.370;2022-12-07T00:41:21;13.87;;;6.57;;
1076;SDS011;64114;48.726;9.370;2022-12-07T00:43:51;8.40;;;6.00;;
1076;SDS011;64114;48.726;9.370;2022-12-07T00:46:20;9.77;;;6.63;;
1076;SDS011;64114;48.726;9.370;2022-12-07T00:48:49;10.97;;;6.37;;
1076;SDS011;64114;48.726;9.370;2022-12-07T00:51:18;8.70;;;6.37;;
1076;SDS011;64114;48.726;9.370;2022-12-07T00:53:48;10.60;;;6.70;;
1076;SDS011;64114;48.726;9.370;2022-12-07T00:56:18;9.40;;;6.17;;
1076;SDS011;64114;48.726;9.370;2022-12-07T00:58:52;8.23;;;5.90;;
1076;SDS011;64114;48.726;9.370;2022-12-07T01:01:22;10.33;;;6.73;;
1076;SDS011;64114;48.726;9.370;2022-12-07T01:03:50;8.87;;;6.70;;
1076;SDS011;64114;48.726;9.370;2022-12-07T01:06:19;8.33;;;6.43;;
1076;SDS011;64114;48.726;9.370;2022-12-07T01:08:49;9.10;;;6.50;;
1076;SDS011;64114;48.726;9.370;2022-12-07T01:11:18;7.77;;;5.87;;
1076;SDS011;64114;48.726;9.370;2022-12-07T01:13:50;11.90;;;6.80;;
1076;SDS011;64114;48.726;9.370;2022-12-07T01:16:21;11.80;;;7.23;;
1076;SDS011;64114;48.726;9.370;2022-12-07T01:18:51;9.00;;;6.93;;
1076;SDS011;64114;48.726;9.370;2022-12-07T01:21:21;11.47;;;6.97;;
1076;SDS011;64114;48.726;9.370;2022-12-07T01:23:50;7.90;;;6.53;;
1076;SDS011;64114;48.726;9.370;2022-12-07T01:26:20;8.73;;;7.37;;
1076;SDS011;64114;48.726;9.370;2022-12-07T01:28:49;13.83;;;6.40;;
1076;SDS011;64114;48.726;9.370;2022-12-07T01:31:19;9.47;;;7.03;;
1076;SDS011;64114;48.726;9.370;2022-12-07T01:33:51;9.83;;;7.67;;
1076;SDS011;64114;48.726;9.370;2022-12-07T01:36:21;9.40;;;6.70;;
1076;SDS011;64114;48.726;9.370;2022-12-07T01:38:51;11.90;;;6.77;;
1076;SDS011;64114;48.726;9.370;2022-12-07T01:41:23;12.50;;;7.70;;
1076;SDS011;64114;48.726;9.370;2022-12-07T01:44:09;9.20;;;7.10;;
1076;SDS011;64114;48.726;9.370;2022-12-07T01:46:42;9.20;;;6.90;;
1076;SDS011;64114;48.726;9.370;2022-12-07T01:49:12;10.53;;;7.37;;
1076;SDS011;64114;48.726;9.370;2022-12-07T01:51:55;10.50;;;6.47;;
1076;SDS011;64114;48.726;9.370;2022-12-07T01:54:28;9.60;;;6.40;;
1076;SDS011;64114;48.726;9.370;2022-12-07T01:56:57;8.43;;;6.33;;
1076;SDS011;64114;48.726;9.370;2022-12-07T01:59:25;8.27;;;6.40;;
1076;SDS011;64114;48.726;9.370;2022-12-07T02:01:55;17.70;;;7.03;;
1076;SDS011;64114;48.726;9.370;2022-12-07T02:04:23;10.60;;;7.40;;
1076;SDS011;64114;48.726;9.370;2022-12-07T02:06:52;9.10;;;6.73;;
1076;SDS011;64114;48.726;9.370;2022-12-07T02:09:22;12.50;;;7.77;;
1076;SDS011;64114;48.726;9.370;2022-12-07T02:11:50;10.43;;;6.70;;
1076;SDS011;64114;48.726;9.370;2022-12-07T02:14:19;11.23;;;7.30;;
1076;SDS011;64114;48.726;9.370;2022-12-07T02:16:51;11.87;;;8.27;;
1076;SDS011;64114;48.726;9.370;2022-12-07T02:22:50;13.00;;;7.30;;
1076;SDS011;64114;48.726;9.370;2022-12-07T02:25:32;11.40;;;7.80;;
1076;SDS011;64114;48.726;9.370;2022-12-07T02:28:19;12.47;;;8.10;;
1076;SDS011;64114;48.726;9.370;2022-12-07T02:30:56;16.13;;;8.07;;
1076;SDS011;64114;48.726;9.370;2022-12-07T02:33:29;12.60;;;7.80;;
1076;SDS011;64114;48.726;9.370;2022-12-07T02:36:04;8.93;;;6.87;;
1076;SDS011;64114;48.726;9.370;2022-12-07T02:38:37;11.03;;;7.20;;
1076;SDS011;64114;48.726;9.370;2022-12-07T02:41:11;12.53;;;7.93;;
1076;SDS011;64114;48.726;9.370;2022-12-07T02:43:45;11.40;;;7.53;;
1076;SDS011;64114;48.726;9.370;2022-12-07T02:46:20;11.97;;;7.77;;
1076;SDS011;64114;48.726;9.370;2022-12-07T02:48:51;14.30;;;7.87;;
1076;SDS011;64114;48.726;9.370;2022-12-07T02:51:21;11.47;;;7.00;;
1076;SDS011;64114;48.726;9.370;2022-12-07T02:53:49;11.40;;;7.00;;
1076;SDS011;64114;48.726;9.370;2022-12-07T02:56:19;11.20;;;7.60;;
1076;SDS011;64114;48.726;9.370;2022-12-07T02:58:59;13.87;;;8.57;;
1076;SDS011;64114;48.726;9.370;2022-12-07T03:01:35;13.13;;;7.40;;
1076;SDS011;64114;48.726;9.370;2022-12-07T03:04:14;11.90;;;7.60;;
1076;SDS011;64114;48.726;9.370;2022-12-07T03:06:56;11.33;;;6.63;;
1076;SDS011;64114;48.726;9.370;2022-12-07T03:09:31;12.07;;;7.13;;
1076;SDS011;64114;48.726;9.370;2022-12-07T03:12:08;11.73;;;7.87;;
1076;SDS011;64114;48.726;9.370;2022-12-07T03:14:44;12.63;;;7.27;;
1076;SDS011;64114;48.726;9.370;2022-12-07T03:17:19;11.20;;;7.50;;
1076;SDS011;64114;48.726;9.370;2022-12-07T03:19:51;12.00;;;6.53;;
1076;SDS011;64114;48.726;9.370;2022-12-07T03:22:24;13.00;;;7.47;;
1076;SDS011;64114;48.726;9.370;2022-12-07T03:24:59;13.33;;;8.00;;
1076;SDS011;64114;48.726;9.370;2022-12-07T03:27:34;11.90;;;6.90;;
1076;SDS011;64114;48.726;9.370;2022-12-07T03:30:07;10.60;;;7.20;;
1076;SDS011;64114;48.726;9.370;2022-12-07T03:32:39;11.90;;;6.80;;
1076;SDS011;64114;48.726;9.370;2022-12-07T03:35:10;12.80;;;7.50;;
1076;SDS011;64114;48.726;9.370;2022-12-07T03:37:45;12.50;;;7.20;;
1076;SDS011;64114;48.726;9.370;2022-12-07T03:40:19;10.50;;;6.50;;
1076;SDS011;64114;48.726;9.370;2022-12-07T03:42:53;10.73;;;6.93;;
1076;SDS011;64114;48.726;9.370;2022-12-07T03:45:24;9.40;;;6.90;;
1076;SDS011;64114;48.726;9.370;2022-12-07T03:48:02;12.20;;;7.97;;
1076;SDS011;64114;48.726;9.370;2022-12-07T03:50:37;10.10;;;7.03;;
1076;SDS011;64114;48.726;9.370;2022-12-07T03:53:11;13.30;;;7.30;;
1076;SDS011;64114;48.726;9.370;2022-12-07T03:55:44;13.90;;;8.10;;
1076;SDS011;64114;48.726;9.370;2022-12-07T03:58:15;10.07;;;6.33;;
1076;SDS011;64114;48.726;9.370;2022-12-07T04:00:46;9.40;;;6.33;;
1076;SDS011;64114;48.726;9.370;2022-12-07T04:03:17;8.27;;;6.77;;
1076;SDS011;64114;48.726;9.370;2022-12-07T04:05:45;9.57;;;6.47;;
1076;SDS011;64114;48.726;9.370;2022-12-07T04:08:13;8.80;;;6.57;;
1076;SDS011;64114;48.726;9.370;2022-12-07T04:10:42;9.50;;;6.07;;
1076;SDS011;64114;48.726;9.370;2022-12-07T04:13:10;11.33;;;6.77;;
1076;SDS011;64114;48.726;9.370;2022-12-07T04:15:38;8.90;;;6.30;;
1076;SDS011;64114;48.726;9.370;2022-12-07T04:18:07;11.10;;;6.43;;
1076;SDS011;64114;48.726;9.370;2022-12-07T04:20:36;10.60;;;6.60;;
1076;SDS011;64114;48.726;9.370;2022-12-07T04:23:05;11.30;;;6.20;;
1076;SDS011;64114;48.726;9.370;2022-12-07T04:25:33;8.67;;;6.67;;
1076;SDS011;64114;48.726;9.370;2022-12-07T04:28:01;12.40;;;6.90;;
1076;SDS011;64114;48.726;9.370;2022-12-07T04:30:28;9.17;;;6.10;;
1076;SDS011;64114;48.726;9.370;2022-12-07T04:32:57;8.63;;;6.20;;
1076;SDS011;64114;48.726;9.370;2022-12-07T04:35:24;12.30;;;7.57;;
1076;SDS011;64114;48.726;9.370;2022-12-07T04:37:53;9.20;;;5.30;;
1076;SDS011;64114;48.726;9.370;2022-12-07T04:40:21;10.17;;;6.50;;
1076;SDS011;64114;48.726;9.370;2022-12-07T04:42:50;10.43;;;6.80;;
1076;SDS011;64114;48.726;9.370;2022-12-07T04:45:18;9.47;;;6.80;;
1076;SDS011;64114;48.726;9.370;2022-12-07T04:47:46;10.07;;;6.57;;
1076;SDS011;64114;48.726;9.370;2022-12-07T04:50:14;9.60;;;6.23;;
1076;SDS011;64114;48.726;9.370;2022-12-07T04:52:42;10.27;;;5.80;;
1076;SDS011;64114;48.726;9.370;2022-12-07T04:55:12;8.07;;;6.03;;
1076;SDS011;64114;48.726;9.370;2022-12-07T04:57:40;10.33;;;7.50;;
1076;SDS011;64114;48.726;9.370;2022-12-07T05:00:09;11.73;;;7.57;;
1076;SDS011;64114;48.726;9.370;2022-12-07T05:02:37;8.43;;;6.53;;
1076;SDS011;64114;48.726;9.370;2022-12-07T05:05:05;11.30;;;6.63;;
1076;SDS011;64114;48.726;9.370;2022-12-07T05:07:34;10.00;;;7.07;;
1076;SDS011;64114;48.726;9.370;2022-12-07T05:10:02;12.60;;;7.87;;
1076;SDS011;64114;48.726;9.370;2022-12-07T05:12:33;9.67;;;5.83;;
1076;SDS011;64114;48.726;9.370;2022-12-07T05:15:01;10.83;;;6.33;;
1076;SDS011;64114;48.726;9.370;2022-12-07T05:17:29;10.47;;;6.57;;
1076;SDS011;64114;48.726;9.370;2022-12-07T05:19:56;16.03;;;7.40;;
1076;SDS011;64114;48.726;9.370;2022-12-07T05:22:24;10.50;;;6.53;;
1076;SDS011;64114;48.726;9.370;2022-12-07T05:24:54;12.27;;;7.37;;
1076;SDS011;64114;48.726;9.370;2022-12-07T05:27:22;12.37;;;7.87;;
1076;SDS011;64114;48.726;9.370;2022-12-07T05:29:52;14.43;;;8.17;;
1076;SDS011;64114;48.726;9.370;2022-12-07T05:32:20;13.00;;;8.13;;
1076;SDS011;64114;48.726;9.370;2022-12-07T05:34:49;16.17;;;8.47;;
1076;SDS011;64114;48.726;9.370;2022-12-07T05:37:17;13.73;;;8.33;;
1076;SDS011;64114;48.726;9.370;2022-12-07T05:39:45;11.57;;;7.33;;
1076;SDS011;64114;48.726;9.370;2022-12-07T05:42:13;11.57;;;7.20;;
1076;SDS011;64114;48.726;9.370;2022-12-07T05:44:42;13.63;;;8.00;;
1076;SDS011;64114;48.726;9.370;2022-12-07T05:47:13;11.97;;;7.60;;
1076;SDS011;64114;48.726;9.370;2022-12-07T05:49:41;11.87;;;8.77;;
1076;SDS011;64114;48.726;9.370;2022-12-07T05:52:09;17.43;;;9.40;;
1076;SDS011;64114;48.726;9.370;2022-12-07T05:54:37;12.23;;;7.10;;
1076;SDS011;64114;48.726;9.370;2022-12-07T05:57:05;17.33;;;9.37;;
1076;SDS011;64114;48.726;9.370;2022-12-07T05:59:33;14.13;;;8.00;;
1076;SDS011;64114;48.726;9.370;2022-12-07T06:02:00;17.17;;;10.50;;
1076;SDS011;64114;48.726;9.370;2022-12-07T06:04:33;11.47;;;7.63;;
1076;SDS011;64114;48.726;9.370;2022-12-07T06:07:02;17.93;;;11.63;;
1076;SDS011;64114;48.726;9.370;2022-12-07T06:09:30;15.67;;;9.03;;
1076;SDS011;64114;48.726;9.370;2022-12-07T06:11:59;15.27;;;10.47;;
1076;SDS011;64114;48.726;9.370;2022-12-07T06:14:44;15.10;;;9.37;;
1076;SDS011;64114;48.726;9.370;2022-12-07T06:17:14;10.60;;;8.00;;
1076;SDS011;64114;48.726;9.370;2022-12-07T06:19:43;16.30;;;8.67;;
1076;SDS011;64114;48.726;9.370;2022-12-07T06:22:12;12.13;;;8.57;;
1076;SDS011;64114;48.726;9.370;2022-12-07T06:24:40;12.83;;;8.00;;
1076;SDS011;64114;48.726;9.370;2022-12-07T06:27:09;11.00;;;7.83;;
1076;SDS011;64114;48.726;9.370;2022-12-07T06:29:38;36.50;;;17.47;;
1076;SDS011;64114;48.726;9.370;2022-12-07T06:32:06;20.57;;;11.90;;
1076;SDS011;64114;48.726;9.370;2022-12-07T06:34:35;16.80;;;8.63;;
1076;SDS011;64114;48.726;9.370;2022-12-07T06:37:05;12.60;;;8.00;;
1076;SDS011;64114;48.726;9.370;2022-12-07T06:39:32;15.30;;;8.77;;
1076;SDS011;64114;48.726;9.370;2022-12-07T06:42:00;11.07;;;7.37;;
1076;SDS011;64114;48.726;9.370;2022-12-07T06:44:28;13.17;;;8.67;;
1076;SDS011;64114;48.726;9.370;2022-12-07T06:46:56;9.40;;;7.13;;
1076;SDS011;64114;48.726;9.370;2022-12-07T06:49:44;12.80;;;8.20;;
1076;SDS011;64114;48.726;9.370;2022-12-07T06:52:13;10.87;;;7.83;;
1076;SDS011;64114;48.726;9.370;2022-12-07T06:54:41;14.77;;;7.50;;
1076;SDS011;64114;48.726;9.370;2022-12-07T06:57:09;13.17;;;7.83;;
1076;SDS011;64114;48.726;9.370;2022-12-07T06:59:37;14.67;;;8.07;;
1076;SDS011;64114;48.726;9.370;2022-12-07T07:02:07;12.10;;;7.60;;
1076;SDS011;64114;48.726;9.370;2022-12-07T07:04:35;16.17;;;7.60;;
1076;SDS011;64114;48.726;9.370;2022-12-07T07:07:03;15.10;;;7.17;;
1076;SDS011;64114;48.726;9.370;2022-12-07T07:09:33;15.27;;;8.37;;
1076;SDS011;64114;48.726;9.370;2022-12-07T07:12:01;15.03;;;8.03;;
1076;SDS011;64114;48.726;9.370;2022-12-07T07:14:29;13.40;;;7.93;;
1076;SDS011;64114;48.726;9.370;2022-12-07T07:16:57;13.60;;;8.03;;
1076;SDS011;64114;48.726;9.370;2022-12-07T07:19:26;13.50;;;7.77;;
1076;SDS011;64114;48.726;9.370;2022-12-07T07:21:53;12.67;;;8.90;;
1076;SDS011;64114;48.726;9.370;2022-12-07T07:24:21;17.53;;;10.83;;
1076;SDS011;64114;48.726;9.370;2022-12-07T07:26:50;13.40;;;8.77;;
1076;SDS011;64114;48.726;9.370;2022-12-07T07:29:18;12.57;;;9.10;;
1076;SDS011;64114;48.726;9.370;2022-12-07T07:31:47;13.60;;;9.23;;
1076;SDS011;64114;48.726;9.370;2022-12-07T07:34:15;13.23;;;8.60;;
1076;SDS011;64114;48.726;9.370;2022-12-07T07:36:43;13.43;;;6.93;;
1076;SDS011;64114;48.726;9.370;2022-12-07T07:39:10;13.27;;;8.40;;
1076;SDS011;64114;48.726;9.370;2022-12-07T07:41:39;13.97;;;8.10;;
1076;SDS011;64114;48.726;9.370;2022-12-07T07:44:13;13.90;;;10.90;;
1076;SDS011;64114;48.726;9.370;2022-12-07T07:46:41;19.60;;;10.13;;
1076;SDS011;64114;48.726;9.370;2022-12-07T07:49:09;16.30;;;8.97;;
1076;SDS011;64114;48.726;9.370;2022-12-07T07:51:38;21.07;;;11.13;;
1076;SDS011;64114;48.726;9.370;2022-12-07T07:54:05;16.13;;;9.83;;
1076;SDS011;64114;48.726;9.370;2022-12-07T07:56:33;10.27;;;8.53;;
1076;SDS011;64114;48.726;9.370;2022-12-07T07:59:01;11.60;;;7.20;;
1076;SDS011;64114;48.726;9.370;2022-12-07T08:01:30;11.50;;;7.70;;
1076;SDS011;64114;48.726;9.370;2022-12-07T08:03:58;12.20;;;7.60;;
1076;SDS011;64114;48.726;9.370;2022-12-07T08:06:26;15.57;;;8.70;;
1076;SDS011;64114;48.726;9.370;2022-12-07T08:08:57;13.87;;;8.03;;
1076;SDS011;64114;48.726;9.370;2022-12-07T08:11:25;14.10;;;8.47;;
1076;SDS011;64114;48.726;9.370;2022-12-07T08:13:53;12.53;;;8.27;;
1076;SDS011;64114;48.726;9.370;2022-12-07T08:16:21;13.90;;;8.10;;
1076;SDS011;64114;48.726;9.370;2022-12-07T08:18:50;12.40;;;7.60;;
1076;SDS011;64114;48.726;9.370;2022-12-07T08:21:18;17.00;;;8.50;;
1076;SDS011;64114;48.726;9.370;2022-12-07T08:23:46;10.93;;;8.50;;
1076;SDS011;64114;48.726;9.370;2022-12-07T08:26:15;13.20;;;9.00;;
1076;SDS011;64114;48.726;9.370;2022-12-07T08:28:43;10.00;;;7.80;;
1076;SDS011;64114;48.726;9.370;2022-12-07T08:31:13;13.10;;;7.60;;
1076;SDS011;64114;48.726;9.370;2022-12-07T08:33:43;12.57;;;8.33;;
1076;SDS011;64114;48.726;9.370;2022-12-07T08:36:14;11.93;;;7.93;;
1076;SDS011;64114;48.726;9.370;2022-12-07T08:38:42;12.40;;;8.97;;
1076;SDS011;64114;48.726;9.370;2022-12-07T08:41:30;12.40;;;8.50;;
1076;SDS011;64114;48.726;9.370;2022-12-07T08:43:59;13.10;;;8.27;;
1076;SDS011;64114;48.726;9.370;2022-12-07T08:46:28;14.00;;;7.40;;
1076;SDS011;64114;48.726;9.370;2022-12-07T08:49:02;14.30;;;8.63;;
1076;SDS011;64114;48.726;9.370;2022-12-07T08:51:33;10.00;;;8.00;;
1076;SDS011;64114;48.726;9.370;2022-12-07T08:54:03;8.37;;;6.97;;
1076;SDS011;64114;48.726;9.370;2022-12-07T08:56:34;12.33;;;7.40;;
1076;SDS011;64114;48.726;9.370;2022-12-07T08:59:02;11.80;;;7.43;;
1076;SDS011;64114;48.726;9.370;2022-12-07T09:01:31;11.83;;;6.97;;
1076;SDS011;64114;48.726;9.370;2022-12-07T09:03:59;8.70;;;6.23;;
1076;SDS011;64114;48.726;9.370;2022-12-07T09:06:27;10.40;;;6.23;;
1076;SDS011;64114;48.726;9.370;2022-12-07T09:08:58;8.90;;;6.20;;
1076;SDS011;64114;48.726;9.370;2022-12-07T09:11:28;12.27;;;6.73;;
1076;SDS011;64114;48.726;9.370;2022-12-07T09:13:57;10.50;;;5.83;;
1076;SDS011;64114;48.726;9.370;2022-12-07T09:16:25;9.47;;;6.20;;
1076;SDS011;64114;48.726;9.370;2022-12-07T09:18:53;8.43;;;5.83;;
1076;SDS011;64114;48.726;9.370;2022-12-07T09:21:22;9.83;;;7.03;;
1076;SDS011;64114;48.726;9.370;2022-12-07T09:23:50;8.53;;;6.70;;
1076;SDS011;64114;48.726;9.370;2022-12-07T09:26:19;8.57;;;5.20;;
1076;SDS011;64114;48.726;9.370;2022-12-07T09:28:48;7.80;;;5.97;;
1076;SDS011;64114;48.726;9.370;2022-12-07T09:31:16;8.73;;;5.30;;
1076;SDS011;64114;48.726;9.370;2022-12-07T09:33:52;8.23;;;4.87;;
1076;SDS011;64114;48.726;9.370;2022-12-07T09:36:22;11.00;;;6.17;;
1076;SDS011;64114;48.726;9.370;2022-12-07T09:38:50;8.47;;;5.63;;
1076;SDS011;64114;48.726;9.370;2022-12-07T09:41:19;9.73;;;5.47;;
1076;SDS011;64114;48.726;9.370;2022-12-07T09:43:50;8.40;;;5.00;;
1076;SDS011;64114;48.726;9.370;2022-12-07T09:46:19;10.27;;;6.70;;
1076;SDS011;64114;48.726;9.370;2022-12-07T09:48:49;10.57;;;5.23;;
1076;SDS011;64114;48.726;9.370;2022-12-07T09:51:19;8.37;;;5.60;;
1076;SDS011;64114;48.726;9.370;2022-12-07T09:53:51;7.53;;;4.10;;
1076;SDS011;64114;48.726;9.370;2022-12-07T09:56:23;6.50;;;4.40;;
1076;SDS011;64114;48.726;9.370;2022-12-07T09:58:56;8.33;;;4.97;;
1076;SDS011;64114;48.726;9.370;2022-12-07T10:01:28;7.80;;;5.23;;
1076;SDS011;64114;48.726;9.370;2022-12-07T10:04:01;6.00;;;4.40;;
1076;SDS011;64114;48.726;9.370;2022-12-07T10:06:36;7.50;;;4.40;;
1076;SDS011;64114;48.726;9.370;2022-12-07T10:09:08;7.10;;;5.10;;
1076;SDS011;64114;48.726;9.370;2022-12-07T10:14:34;8.27;;;5.70;;
1076;SDS011;64114;48.726;9.370;2022-12-07T10:17:29;7.50;;;5.43;;
1076;SDS011;64114;48.726;9.370;2022-12-07T10:20:20;6.63;;;5.07;;
1076;SDS011;64114;48.726;9.370;2022-12-07T10:22:54;5.90;;;4.63;;
1076;SDS011;64114;48.726;9.370;2022-12-07T10:25:26;6.33;;;4.50;;
1076;SDS011;64114;48.726;9.370;2022-12-07T10:28:01;8.70;;;5.70;;
1076;SDS011;64114;48.726;9.370;2022-12-07T10:30:45;5.10;;;4.40;;
1076;SDS011;64114;48.726;9.370;2022-12-07T10:33:27;7.90;;;5.03;;
1076;SDS011;64114;48.726;9.370;2022-12-07T10:35:56;6.90;;;5.17;;
1076;SDS011;64114;48.726;9.370;2022-12-07T10:38:26;6.20;;;5.43;;
1076;SDS011;64114;48.726;9.370;2022-12-07T10:41:02;9.70;;;5.00;;
1076;SDS011;64114;48.726;9.370;2022-12-07T10:43:33;7.63;;;4.20;;
1076;SDS011;64114;48.726;9.370;2022-12-07T10:49:03;6.20;;;4.53;;
1076;SDS011;64114;48.726;9.370;2022-12-07T10:51:46;6.47;;;4.77;;
1076;SDS011;64114;48.726;9.370;2022-12-07T10:54:23;5.87;;;4.80;;
1076;SDS011;64114;48.726;9.370;2022-12-07T10:56:58;5.10;;;4.17;;
1076;SDS011;64114;48.726;9.370;2022-12-07T10:59:58;7.47;;;4.70;;
1076;SDS011;64114;48.726;9.370;2022-12-07T11:02:37;7.23;;;4.73;;
1076;SDS011;64114;48.726;9.370;2022-12-07T11:05:26;6.30;;;5.00;;
1076;SDS011;64114;48.726;9.370;2022-12-07T11:08:00;7.43;;;4.93;;
1076;SDS011;64114;48.726;9.370;2022-12-07T11:10:39;6.20;;;4.57;;
1076;SDS011;64114;48.726;9.370;2022-12-07T11:13:25;7.60;;;4.97;;
1076;SDS011;64114;48.726;9.370;2022-12-07T11:16:05;8.80;;;4.57;;
1076;SDS011;64114;48.726;9.370;2022-12-07T11:18:46;7.20;;;4.40;;
1076;SDS011;64114;48.726;9.370;2022-12-07T11:21:24;7.57;;;4.13;;
1076;SDS011;64114;48.726;9.370;2022-12-07T11:24:01;9.70;;;5.27;;
1076;SDS011;64114;48.726;9.370;2022-12-07T11:26:34;13.33;;;4.83;;
1076;SDS011;64114;48.726;9.370;2022-12-07T11:29:19;7.43;;;4.87;;
1076;SDS011;64114;48.726;9.370;2022-12-07T11:32:01;5.37;;;4.03;;
1076;SDS011;64114;48.726;9.370;2022-12-07T11:34:38;6.37;;;4.83;;
1076;SDS011;64114;48.726;9.370;2022-12-07T11:37:16;5.50;;;3.87;;
1076;SDS011;64114;48.726;9.370;2022-12-07T11:39:49;11.20;;;4.13;;
1076;SDS011;64114;48.726;9.370;2022-12-07T11:42:21;5.30;;;4.00;;
1076;SDS011;64114;48.726;9.370;2022-12-07T11:44:53;6.87;;;3.80;;
1076;SDS011;64114;48.726;9.370;2022-12-07T11:47:30;7.83;;;4.00;;
1076;SDS011;64114;48.726;9.370;2022-12-07T11:50:10;5.93;;;4.20;;
1076;SDS011;64114;48.726;9.370;2022-12-07T11:52:51;8.13;;;4.20;;
1076;SDS011;64114;48.726;9.370;2022-12-07T11:55:24;5.47;;;4.37;;
1076;SDS011;64114;48.726;9.370;2022-12-07T11:57:58;4.63;;;4.13;;
1076;SDS011;64114;48.726;9.370;2022-12-07T12:00:32;7.23;;;4.53;;
1076;SDS011;64114;48.726;9.370;2022-12-07T12:03:03;6.60;;;4.33;;
1076;SDS011;64114;48.726;9.370;2022-12-07T12:05:37;8.93;;;4.70;;
1076;SDS011;64114;48.726;9.370;2022-12-07T12:08:12;8.40;;;4.93;;
1076;SDS011;64114;48.726;9.370;2022-12-07T12:11:06;9.20;;;3.80;;
1076;SDS011;64114;48.726;9.370;2022-12-07T12:13:51;5.43;;;3.90;;
1076;SDS011;64114;48.726;9.370;2022-12-07T12:16:59;8.63;;;4.27;;
1076;SDS011;64114;48.726;9.370;2022-12-07T12:19:42;5.10;;;4.30;;
1076;SDS011;64114;48.726;9.370;2022-12-07T12:22:28;6.53;;;4.30;;
1076;SDS011;64114;48.726;9.370;2022-12-07T12:25:04;8.47;;;3.90;;
1076;SDS011;64114;48.726;9.370;2022-12-07T12:27:35;6.13;;;3.83;;
1076;SDS011;64114;48.726;9.370;2022-12-07T12:30:06;6.73;;;4.90;;
1076;SDS011;64114;48.726;9.370;2022-12-07T12:32:50;6.63;;;4.10;;
1076;SDS011;64114;48.726;9.370;2022-12-07T12:35:28;7.67;;;4.20;;
1076;SDS011;64114;48.726;9.370;2022-12-07T12:40:55;7.33;;;4.60;;
1076;SDS011;64114;48.726;9.370;2022-12-07T12:55:20;7.13;;;4.10;;
1076;SDS011;64114;48.726;9.370;2022-12-07T13:04:25;5.97;;;4.80;;
1076;SDS011;64114;48.726;9.370;2022-12-07T13:06:58;4.93;;;3.80;;
1076;SDS011;64114;48.726;9.370;2022-12-07T13:09:26;7.37;;;4.00;;
1076;SDS011;64114;48.726;9.370;2022-12-07T13:12:12;4.97;;;3.77;;
1076;SDS011;64114;48.726;9.370;2022-12-07T13:17:56;5.97;;;3.83;;
1076;SDS011;64114;48.726;9.370;2022-12-07T13:20:40;5.30;;;3.87;;
1076;SDS011;64114;48.726;9.370;2022-12-07T13:23:19;5.87;;;4.70;;
1076;SDS011;64114;48.726;9.370;2022-12-07T13:25:55;8.00;;;5.00;;
1076;SDS011;64114;48.726;9.370;2022-12-07T13:28:44;7.27;;;5.07;;
1076;SDS011;64114;48.726;9.370;2022-12-07T13:31:26;7.30;;;5.03;;
1076;SDS011;64114;48.726;9.370;2022-12-07T13:34:00;5.63;;;4.33;;
1076;SDS011;64114;48.726;9.370;2022-12-07T13:36:29;5.97;;;4.70;;
1076;SDS011;64114;48.726;9.370;2022-12-07T13:39:17;8.97;;;5.17;;
1076;SDS011;64114;48.726;9.370;2022-12-07T13:41:49;9.87;;;5.13;;
1076;SDS011;64114;48.726;9.370;2022-12-07T13:44:20;6.53;;;5.10;;
1076;SDS011;64114;48.726;9.370;2022-12-07T13:46:53;8.03;;;5.00;;
1076;SDS011;64114;48.726;9.370;2022-12-07T13:49:26;5.77;;;4.33;;
1076;SDS011;64114;48.726;9.370;2022-12-07T13:52:06;5.70;;;4.40;;
1076;SDS011;64114;48.726;9.370;2022-12-07T13:54:45;6.27;;;4.30;;
1076;SDS011;64114;48.726;9.370;2022-12-07T13:57:15;5.73;;;4.40;;
1076;SDS011;64114;48.726;9.370;2022-12-07T13:59:45;8.07;;;4.23;;
1076;SDS011;64114;48.726;9.370;2022-12-07T14:02:18;7.17;;;4.67;;
1076;SDS011;64114;48.726;9.370;2022-12-07T14:04:48;7.10;;;5.20;;
1076;SDS011;64114;48.726;9.370;2022-12-07T14:07:22;8.43;;;5.23;;
1076;SDS011;64114;48.726;9.370;2022-12-07T14:09:56;6.47;;;4.43;;
1076;SDS011;64114;48.726;9.370;2022-12-07T14:12:27;7.10;;;4.13;;
1076;SDS011;64114;48.726;9.370;2022-12-07T14:14:59;5.40;;;4.47;;
1076;SDS011;64114;48.726;9.370;2022-12-07T14:17:28;7.30;;;4.63;;
1076;SDS011;64114;48.726;9.370;2022-12-07T14:19:57;9.13;;;5.70;;
1076;SDS011;64114;48.726;9.370;2022-12-07T14:22:30;9.13;;;5.43;;
1076;SDS011;64114;48.726;9.370;2022-12-07T14:25:18;5.33;;;4.30;;
1076;SDS011;64114;48.726;9.370;2022-12-07T14:27:49;6.27;;;4.50;;
1076;SDS011;64114;48.726;9.370;2022-12-07T14:30:21;6.67;;;5.27;;
1076;SDS011;64114;48.726;9.370;2022-12-07T14:32:52;10.50;;;4.37;;
1076;SDS011;64114;48.726;9.370;2022-12-07T14:35:21;6.80;;;4.60;;
1076;SDS011;64114;48.726;9.370;2022-12-07T14:37:48;6.60;;;4.77;;
1076;SDS011;64114;48.726;9.370;2022-12-07T14:40:18;7.07;;;5.03;;
1076;SDS011;64114;48.726;9.370;2022-12-07T14:42:48;8.03;;;4.83;;
1076;SDS011;64114;48.726;9.370;2022-12-07T14:45:20;6.57;;;5.40;;
1076;SDS011;64114;48.726;9.370;2022-12-07T14:47:50;6.90;;;4.83;;
1076;SDS011;64114;48.726;9.370;2022-12-07T14:50:38;10.23;;;5.77;;
1076;SDS011;64114;48.726;9.370;2022-12-07T14:53:29;8.87;;;6.67;;
1076;SDS011;64114;48.726;9.370;2022-12-07T14:56:02;7.30;;;4.93;;
1076;SDS011;64114;48.726;9.370;2022-12-07T14:58:32;10.43;;;5.73;;
1076;SDS011;64114;48.726;9.370;2022-12-07T15:01:03;8.03;;;5.63;;
1076;SDS011;64114;48.726;9.370;2022-12-07T15:03:31;5.53;;;5.00;;
1076;SDS011;64114;48.726;9.370;2022-12-07T15:06:00;7.87;;;5.67;;
1076;SDS011;64114;48.726;9.370;2022-12-07T15:08:28;11.97;;;5.13;;
1076;SDS011;64114;48.726;9.370;2022-12-07T15:10:56;7.37;;;5.23;;
1076;SDS011;64114;48.726;9.370;2022-12-07T15:13:24;9.40;;;6.50;;
1076;SDS011;64114;48.726;9.370;2022-12-07T15:16:13;6.93;;;4.77;;
1076;SDS011;64114;48.726;9.370;2022-12-07T15:18:44;11.07;;;6.67;;
1076;SDS011;64114;48.726;9.370;2022-12-07T15:21:32;12.53;;;7.20;;
1076;SDS011;64114;48.726;9.370;2022-12-07T15:24:00;8.93;;;5.70;;
1076;SDS011;64114;48.726;9.370;2022-12-07T15:26:28;8.23;;;5.83;;
1076;SDS011;64114;48.726;9.370;2022-12-07T15:28:56;10.87;;;5.40;;
1076;SDS011;64114;48.726;9.370;2022-12-07T15:31:25;7.63;;;5.77;;
1076;SDS011;64114;48.726;9.370;2022-12-07T15:34:13;8.77;;;5.73;;
1076;SDS011;64114;48.726;9.370;2022-12-07T15:36:41;11.43;;;5.40;;
1076;SDS011;64114;48.726;9.370;2022-12-07T15:39:09;8.93;;;5.17;;
1076;SDS011;64114;48.726;9.370;2022-12-07T15:41:40;11.43;;;6.20;;
1076;SDS011;64114;48.726;9.370;2022-12-07T15:44:08;7.90;;;5.60;;
1076;SDS011;64114;48.726;9.370;2022-12-07T15:47:02;8.23;;;6.00;;
1076;SDS011;64114;48.726;9.370;2022-12-07T15:49:31;8.23;;;5.70;;
1076;SDS011;64114;48.726;9.370;2022-12-07T15:51:59;10.10;;;6.43;;
1076;SDS011;64114;48.726;9.370;2022-12-07T15:54:28;9.70;;;6.57;;
1076;SDS011;64114;48.726;9.370;2022-12-07T15:56:57;7.70;;;5.57;;
1076;SDS011;64114;48.726;9.370;2022-12-07T15:59:26;8.10;;;5.63;;